Time;durP1;ratioP1;P1;durP2;ratioP2;P2;SDS_P1;SDS_P2;PMS_P1;PMS_P2;Temp;Humidity;BMP_temperature;BMP_pressure;BME280_temperature;BME280_humidity;BME280_pressure;Samples;Min_cycle;Max_cycle;Signal;HPM_P1;HPM_P2
2022/08/18 00:02:12;;;;;;;21.35;17.35;;;;;;;;;;4455879;28;20047;-68
2022/08/18 00:04:23;;;;;;;21.05;16.60;;;;;;;;;;4453687;28;20038;-69
2022/08/18 00:06:33;;;;;;;21.85;17.15;;;;;;;;;;4455044;28;20499;-68
2022/08/18 00:08:44;;;;;;;21.73;17.55;;;;;;;;;;4454364;28;20047;-67
2022/08/18 00:10:55;;;;;;;21.70;17.05;;;;;;;;;;4426744;28;20028;-68
2022/08/18 00:13:05;;;;;;;20.15;16.52;;;;;;;;;;4454855;28;20046;-68
2022/08/18 00:15:16;;;;;;;20.20;16.80;;;;;;;;;;4437348;28;20095;-68
2022/08/18 00:17:26;;;;;;;21.35;17.88;;;;;;;;;;4454278;28;20031;-68
2022/08/18 00:19:36;;;;;;;23.30;18.80;;;;;;;;;;4453856;28;20031;-67
2022/08/18 00:21:47;;;;;;;23.25;18.80;;;;;;;;;;4454754;28;20108;-68
2022/08/18 00:23:57;;;;;;;24.00;19.50;;;;;;;;;;4454332;28;20117;-69
2022/08/18 00:26:08;;;;;;;23.10;18.15;;;;;;;;;;4454180;28;20031;-69
2022/08/18 00:28:18;;;;;;;20.83;17.27;;;;;;;;;;4454235;28;20050;-69
2022/08/18 00:30:28;;;;;;;21.70;17.58;;;;;;;;;;4455207;28;20039;-69
2022/08/18 00:32:42;;;;;;;21.92;17.52;;;;;;;;;;4453951;28;20114;-70
2022/08/18 00:34:53;;;;;;;20.75;17.35;;;;;;;;;;4454883;28;20629;-72
2022/08/18 00:37:04;;;;;;;21.00;17.77;;;;;;;;;;4454366;28;20039;-70
2022/08/18 00:39:14;;;;;;;21.58;17.35;;;;;;;;;;4437448;28;20044;-71
2022/08/18 00:41:25;;;;;;;22.00;17.65;;;;;;;;;;4449718;28;20030;-71
2022/08/18 00:43:36;;;;;;;22.05;17.55;;;;;;;;;;4439145;28;20051;-70
2022/08/18 00:45:46;;;;;;;22.75;17.65;;;;;;;;;;4454134;28;20039;-70
2022/08/18 00:47:57;;;;;;;23.08;18.58;;;;;;;;;;4469272;28;20039;-69
2022/08/18 00:50:15;;;;;;;23.05;18.40;;;;;;;;;;4454167;28;20044;-68
2022/08/18 00:52:25;;;;;;;22.65;18.35;;;;;;;;;;4468492;28;20607;-67
2022/08/18 00:54:39;;;;;;;21.38;17.25;;;;;;;;;;4447180;28;20044;-69
2022/08/18 00:56:53;;;;;;;22.70;18.30;;;;;;;;;;4457567;28;21066;-69
2022/08/18 00:59:37;;;;;;;23.88;18.92;;;;;;;;;;4474177;28;20143;-69
2022/08/18 01:01:49;;;;;;;24.83;19.25;;;;;;;;;;4457257;28;20593;-69
2022/08/18 01:04:07;;;;;;;21.73;17.88;;;;;;;;;;4473752;28;20629;-70
2022/08/18 01:06:39;;;;;;;24.55;20.02;;;;;;;;;;4458971;28;20047;-69
2022/08/18 01:08:50;;;;;;;24.88;19.95;;;;;;;;;;4456223;28;20855;-70
2022/08/18 01:11:01;;;;;;;25.02;19.48;;;;;;;;;;4457133;28;20066;-69
2022/08/18 01:13:12;;;;;;;26.27;19.85;;;;;;;;;;4457520;28;20027;-70
2022/08/18 01:15:23;;;;;;;24.67;19.63;;;;;;;;;;4443182;28;20405;-69
2022/08/18 01:22:39;;;;;;;23.80;18.25;;;;;;;;;;4456507;28;20650;-69
2022/08/18 01:27:21;;;;;;;22.52;18.00;;;;;;;;;;4456875;28;20035;-69
2022/08/18 01:29:34;;;;;;;23.10;18.00;;;;;;;;;;4441201;28;20050;-70
2022/08/18 01:31:55;;;;;;;23.73;18.90;;;;;;;;;;4456923;28;20620;-70
2022/08/18 01:34:07;;;;;;;25.58;19.92;;;;;;;;;;4440341;28;20031;-69
2022/08/18 01:36:19;;;;;;;23.83;18.48;;;;;;;;;;4456026;28;20567;-69
2022/08/18 01:38:33;;;;;;;23.25;17.90;;;;;;;;;;4457035;28;20027;-69
2022/08/18 01:40:44;;;;;;;22.30;17.70;;;;;;;;;;4457424;28;20058;-70
2022/08/18 01:42:55;;;;;;;23.48;18.77;;;;;;;;;;4455864;28;20764;-69
2022/08/18 01:45:06;;;;;;;24.38;18.83;;;;;;;;;;4457250;28;20121;-70
2022/08/18 01:47:17;;;;;;;22.52;17.85;;;;;;;;;;4456407;28;20743;-69
2022/08/18 01:49:28;;;;;;;23.45;18.77;;;;;;;;;;4456813;28;20043;-69
2022/08/18 01:51:41;;;;;;;25.45;19.70;;;;;;;;;;4442672;28;20043;-70
2022/08/18 01:53:51;;;;;;;24.30;19.45;;;;;;;;;;4457159;28;20037;-69
2022/08/18 01:56:05;;;;;;;24.02;19.02;;;;;;;;;;4440709;28;20044;-69
2022/08/18 01:58:16;;;;;;;26.00;19.35;;;;;;;;;;4455455;28;20046;-70
2022/08/18 02:00:27;;;;;;;25.75;19.80;;;;;;;;;;4458336;28;20030;-70
2022/08/18 02:02:38;;;;;;;27.65;20.95;;;;;;;;;;4441365;28;20634;-70
2022/08/18 02:04:56;;;;;;;26.58;20.33;;;;;;;;;;4439344;28;20040;-69
2022/08/18 02:07:10;;;;;;;29.63;22.13;;;;;;;;;;4469693;28;20038;-70
2022/08/18 02:09:21;;;;;;;26.67;20.50;;;;;;;;;;4455261;28;20046;-70
2022/08/18 02:11:31;;;;;;;26.90;20.85;;;;;;;;;;4455373;28;20046;-70
2022/08/18 02:13:42;;;;;;;27.42;20.48;;;;;;;;;;4457219;28;20038;-69
2022/08/18 02:15:52;;;;;;;28.40;21.20;;;;;;;;;;4457881;28;20046;-68
2022/08/18 02:18:03;;;;;;;30.38;22.38;;;;;;;;;;4458028;28;20177;-70
2022/08/18 02:20:16;;;;;;;27.85;21.00;;;;;;;;;;4456417;28;20081;-69
2022/08/18 02:22:26;;;;;;;26.35;19.80;;;;;;;;;;4456251;28;21042;-69
2022/08/18 02:24:37;;;;;;;26.35;20.38;;;;;;;;;;4456668;28;20078;-69
2022/08/18 02:26:47;;;;;;;26.95;20.25;;;;;;;;;;4458119;28;20042;-70
2022/08/18 02:28:58;;;;;;;26.95;20.63;;;;;;;;;;4456386;28;20454;-69
2022/08/18 02:31:11;;;;;;;28.02;20.65;;;;;;;;;;4456887;28;20472;-69
2022/08/18 02:33:22;;;;;;;27.98;20.88;;;;;;;;;;4471757;28;20042;-69
2022/08/18 02:35:33;;;;;;;25.90;20.27;;;;;;;;;;4458164;28;20075;-69
2022/08/18 02:37:46;;;;;;;26.50;20.33;;;;;;;;;;4457022;28;20077;-69
2022/08/18 02:39:57;;;;;;;27.02;20.42;;;;;;;;;;4456155;28;20043;-69
2022/08/18 02:42:07;;;;;;;27.52;20.98;;;;;;;;;;4457696;28;20038;-69
2022/08/18 02:44:18;;;;;;;28.88;21.20;;;;;;;;;;4441266;28;20497;-69
2022/08/18 02:46:29;;;;;;;26.52;20.15;;;;;;;;;;4457125;28;20043;-69
2022/08/18 02:48:39;;;;;;;26.70;19.90;;;;;;;;;;4457464;28;20162;-69
2022/08/18 02:50:50;;;;;;;24.33;19.08;;;;;;;;;;4458440;28;20139;-69
2022/08/18 02:53:01;;;;;;;26.33;19.90;;;;;;;;;;4455886;28;20419;-69
2022/08/18 02:55:12;;;;;;;25.98;19.75;;;;;;;;;;4454776;28;20035;-69
2022/08/18 02:57:23;;;;;;;24.88;19.45;;;;;;;;;;4440346;28;20040;-69
2022/08/18 02:59:33;;;;;;;24.23;19.05;;;;;;;;;;4457503;28;20039;-69
2022/08/18 03:01:45;;;;;;;27.08;20.40;;;;;;;;;;4427969;28;20040;-69
2022/08/18 03:03:57;;;;;;;25.98;20.20;;;;;;;;;;4458235;28;20043;-70
2022/08/18 03:06:08;;;;;;;25.92;20.00;;;;;;;;;;4471043;28;20567;-69
2022/08/18 03:08:18;;;;;;;26.52;20.10;;;;;;;;;;4457753;28;20043;-69
2022/08/18 03:10:29;;;;;;;25.88;19.60;;;;;;;;;;4457203;28;20048;-69
2022/08/18 03:12:42;;;;;;;26.65;20.35;;;;;;;;;;4456501;28;20061;-69
2022/08/18 03:14:52;;;;;;;26.63;19.42;;;;;;;;;;4456070;28;20039;-68
2022/08/18 03:17:07;;;;;;;25.83;19.92;;;;;;;;;;4456187;28;20027;-69
2022/08/18 03:19:17;;;;;;;25.17;18.95;;;;;;;;;;4454693;28;20067;-69
2022/08/18 03:21:30;;;;;;;26.00;19.88;;;;;;;;;;4457537;28;20639;-69
2022/08/18 03:23:41;;;;;;;24.83;19.25;;;;;;;;;;4455903;28;20492;-69
2022/08/18 03:25:52;;;;;;;26.45;20.08;;;;;;;;;;4455959;28;20028;-69
2022/08/18 03:28:03;;;;;;;26.05;19.60;;;;;;;;;;4456195;28;20122;-69
2022/08/18 03:30:13;;;;;;;24.45;19.00;;;;;;;;;;4439886;28;20090;-68
2022/08/18 03:32:24;;;;;;;24.98;19.02;;;;;;;;;;4455467;28;20555;-69
2022/08/18 03:34:34;;;;;;;24.60;18.65;;;;;;;;;;4455949;28;20043;-69
2022/08/18 03:36:46;;;;;;;25.20;19.60;;;;;;;;;;4456487;28;20040;-68
2022/08/18 03:38:57;;;;;;;25.63;19.20;;;;;;;;;;4455950;28;20078;-68
2022/08/18 03:41:09;;;;;;;24.98;19.77;;;;;;;;;;4440639;28;20062;-68
2022/08/18 03:43:20;;;;;;;23.98;18.67;;;;;;;;;;4454758;28;20097;-68
2022/08/18 03:45:30;;;;;;;24.67;18.90;;;;;;;;;;4457026;28;20110;-68
2022/08/18 03:47:41;;;;;;;24.58;18.80;;;;;;;;;;4455654;28;20050;-69
2022/08/18 03:49:51;;;;;;;26.25;19.38;;;;;;;;;;4438900;28;20083;-68
2022/08/18 03:52:02;;;;;;;26.73;19.50;;;;;;;;;;4455871;28;20039;-68
2022/08/18 03:54:15;;;;;;;26.55;19.83;;;;;;;;;;4456019;28;20496;-69
2022/08/18 03:56:33;;;;;;;24.50;18.83;;;;;;;;;;4456080;28;20039;-68
2022/08/18 03:58:46;;;;;;;27.33;20.40;;;;;;;;;;4455546;28;20086;-69
2022/08/18 04:00:56;;;;;;;23.83;17.90;;;;;;;;;;4456978;28;20491;-68
2022/08/18 04:03:08;;;;;;;25.05;19.23;;;;;;;;;;4471328;28;20038;-68
2022/08/18 04:05:18;;;;;;;25.45;19.33;;;;;;;;;;4454031;28;20039;-69
2022/08/18 04:07:29;;;;;;;25.08;18.40;;;;;;;;;;4455108;28;20510;-68
2022/08/18 04:09:40;;;;;;;26.15;20.08;;;;;;;;;;4456457;28;20039;-68
2022/08/18 04:11:51;;;;;;;25.65;19.67;;;;;;;;;;4456370;28;20039;-68
2022/08/18 04:14:03;;;;;;;26.52;19.92;;;;;;;;;;4457026;28;20600;-69
2022/08/18 04:16:13;;;;;;;27.63;20.95;;;;;;;;;;4439660;28;20609;-68
2022/08/18 04:18:24;;;;;;;29.42;21.60;;;;;;;;;;4454843;28;20027;-68
2022/08/18 04:20:34;;;;;;;23.67;18.25;;;;;;;;;;4456139;28;20165;-68
2022/08/18 04:22:45;;;;;;;23.58;17.35;;;;;;;;;;4454866;28;20046;-69
2022/08/18 04:24:55;;;;;;;25.20;18.80;;;;;;;;;;4456265;28;21117;-68
2022/08/18 04:27:06;;;;;;;24.73;19.15;;;;;;;;;;4455562;28;20039;-68
2022/08/18 04:29:19;;;;;;;24.95;19.05;;;;;;;;;;4470074;28;20035;-68
2022/08/18 04:31:31;;;;;;;24.50;19.10;;;;;;;;;;4456244;28;20165;-69
2022/08/18 04:33:41;;;;;;;24.45;18.67;;;;;;;;;;4454251;28;20058;-68
2022/08/18 04:35:52;;;;;;;26.10;19.80;;;;;;;;;;4454648;28;20123;-69
2022/08/18 04:38:03;;;;;;;26.60;19.98;;;;;;;;;;4455397;28;20155;-69
2022/08/18 04:40:13;;;;;;;27.83;20.63;;;;;;;;;;4454865;28;20091;-68
2022/08/18 04:42:24;;;;;;;27.55;20.50;;;;;;;;;;4455558;28;20039;-68
2022/08/18 04:44:36;;;;;;;27.00;20.58;;;;;;;;;;4455740;28;20533;-68
2022/08/18 04:46:53;;;;;;;27.33;20.35;;;;;;;;;;4454215;28;20042;-69
2022/08/18 04:49:04;;;;;;;26.67;19.77;;;;;;;;;;4454594;28;20045;-68
2022/08/18 04:51:16;;;;;;;25.98;19.45;;;;;;;;;;4440206;28;20090;-68
2022/08/18 04:53:45;;;;;;;27.30;19.90;;;;;;;;;;4455094;28;20035;-68
2022/08/18 04:55:55;;;;;;;28.42;21.00;;;;;;;;;;4455197;28;20035;-69
2022/08/18 04:58:06;;;;;;;30.38;21.77;;;;;;;;;;4439197;28;20051;-69
2022/08/18 05:00:18;;;;;;;28.10;21.55;;;;;;;;;;4454663;28;20034;-68
2022/08/18 05:02:31;;;;;;;30.95;22.42;;;;;;;;;;4454014;28;20047;-68
2022/08/18 05:04:45;;;;;;;29.90;22.02;;;;;;;;;;4439714;28;20031;-68
2022/08/18 05:06:56;;;;;;;29.45;21.85;;;;;;;;;;4447154;28;20118;-68
2022/08/18 05:09:09;;;;;;;29.35;21.27;;;;;;;;;;4437998;28;20580;-68
2022/08/18 05:11:21;;;;;;;28.35;20.98;;;;;;;;;;4453570;28;20023;-69
2022/08/18 05:13:31;;;;;;;29.33;22.13;;;;;;;;;;4434479;28;20322;-68
2022/08/18 05:15:42;;;;;;;28.42;21.75;;;;;;;;;;4437103;28;20042;-68
2022/08/18 05:17:52;;;;;;;29.63;22.40;;;;;;;;;;4438659;28;20036;-68
2022/08/18 05:20:03;;;;;;;28.00;21.15;;;;;;;;;;4454350;28;20063;-69
2022/08/18 05:22:16;;;;;;;28.42;21.45;;;;;;;;;;4454728;28;20046;-68
2022/08/18 05:24:28;;;;;;;29.45;22.27;;;;;;;;;;4453298;28;20043;-69
2022/08/18 05:26:40;;;;;;;27.95;21.38;;;;;;;;;;4453192;28;20062;-68
2022/08/18 05:28:50;;;;;;;29.38;22.17;;;;;;;;;;4453546;28;20058;-68
2022/08/18 05:31:20;;;;;;;29.63;21.38;;;;;;;;;;4454853;28;20075;-68
2022/08/18 05:33:31;;;;;;;31.27;22.27;;;;;;;;;;4437658;28;20055;-69
2022/08/18 05:35:44;;;;;;;31.83;22.58;;;;;;;;;;4454386;28;20042;-69
2022/08/18 05:38:07;;;;;;;28.55;20.98;;;;;;;;;;4453167;28;20050;-68
2022/08/18 05:40:20;;;;;;;30.80;22.50;;;;;;;;;;4454549;28;20540;-68
2022/08/18 05:42:35;;;;;;;29.25;21.98;;;;;;;;;;4433338;28;20040;-69
2022/08/18 05:44:50;;;;;;;30.70;22.52;;;;;;;;;;4456804;28;20027;-68
2022/08/18 05:47:25;;;;;;;30.25;22.00;;;;;;;;;;4450026;28;20035;-69
2022/08/18 05:49:36;;;;;;;29.67;21.83;;;;;;;;;;4453103;28;20606;-68
2022/08/18 05:52:09;;;;;;;30.45;21.77;;;;;;;;;;4458029;28;20027;-68
2022/08/18 05:56:51;;;;;;;30.10;22.20;;;;;;;;;;4456532;28;20063;-69
2022/08/18 05:59:01;;;;;;;31.08;22.77;;;;;;;;;;4446851;28;20047;-69
2022/08/18 06:01:23;;;;;;;30.45;22.13;;;;;;;;;;4456984;28;20058;-68
2022/08/18 06:03:45;;;;;;;32.70;22.63;;;;;;;;;;4455696;28;20039;-64
2022/08/18 06:05:57;;;;;;;30.33;21.70;;;;;;;;;;4471718;28;20802;-64
2022/08/18 06:08:11;;;;;;;31.13;21.67;;;;;;;;;;4456681;28;20606;-64
2022/08/18 06:10:22;;;;;;;33.00;23.08;;;;;;;;;;4439764;28;20107;-64
2022/08/18 06:12:42;;;;;;;31.45;22.40;;;;;;;;;;4455698;28;20643;-64
2022/08/18 06:15:01;;;;;;;31.52;21.90;;;;;;;;;;4440076;28;20035;-64
2022/08/18 06:17:18;;;;;;;31.55;21.77;;;;;;;;;;4441696;28;20053;-64
2022/08/18 06:19:51;;;;;;;32.53;21.27;;;;;;;;;;4445533;28;20193;-64
2022/08/18 06:22:11;;;;;;;31.23;21.52;;;;;;;;;;4427243;28;20033;-64
2022/08/18 06:24:43;;;;;;;33.15;22.60;;;;;;;;;;4456860;28;20035;-64
2022/08/18 06:26:59;;;;;;;30.30;21.05;;;;;;;;;;4424909;28;20129;-64
2022/08/18 06:29:15;;;;;;;30.15;20.27;;;;;;;;;;4456453;28;20614;-64
2022/08/18 06:31:34;;;;;;;32.55;21.58;;;;;;;;;;4456207;28;20832;-64
2022/08/18 06:34:11;;;;;;;31.70;21.02;;;;;;;;;;4466699;28;20046;-63
2022/08/18 06:36:54;;;;;;;30.77;21.08;;;;;;;;;;4441097;28;20275;-63
2022/08/18 06:39:43;;;;;;;33.28;21.48;;;;;;;;;;4444635;28;20114;-63
2022/08/18 06:41:54;;;;;;;29.50;20.58;;;;;;;;;;4453682;28;21638;-63
2022/08/18 06:44:11;;;;;;;29.65;20.60;;;;;;;;;;4448529;28;20039;-63
2022/08/18 06:46:48;;;;;;;31.13;20.52;;;;;;;;;;4438723;28;20200;-63
2022/08/18 06:49:05;;;;;;;28.67;19.83;;;;;;;;;;4455604;28;20047;-63
2022/08/18 06:51:19;;;;;;;30.95;20.25;;;;;;;;;;4455762;28;20070;-63
2022/08/18 06:53:49;;;;;;;29.63;19.63;;;;;;;;;;4423278;28;20599;-63
2022/08/18 06:56:20;;;;;;;30.65;19.75;;;;;;;;;;4454165;28;20605;-63
2022/08/18 06:58:31;;;;;;;28.75;19.55;;;;;;;;;;4456040;28;20038;-63
2022/08/18 07:00:45;;;;;;;30.33;19.17;;;;;;;;;;4457733;28;20023;-64
2022/08/18 07:02:56;;;;;;;30.77;18.98;;;;;;;;;;4440098;28;20102;-65
2022/08/18 07:05:14;;;;;;;29.42;19.20;;;;;;;;;;4454759;28;20039;-64
2022/08/18 07:07:35;;;;;;;31.77;18.92;;;;;;;;;;4455607;28;20834;-64
2022/08/18 07:09:48;;;;;;;31.17;19.42;;;;;;;;;;4455675;28;20802;-67
2022/08/18 07:12:06;;;;;;;33.38;19.45;;;;;;;;;;4457504;28;20125;-63
2022/08/18 07:14:22;;;;;;;30.88;18.63;;;;;;;;;;4443097;28;20036;-63
2022/08/18 07:16:33;;;;;;;29.98;18.60;;;;;;;;;;4469649;28;20121;-62
2022/08/18 07:18:45;;;;;;;28.88;18.27;;;;;;;;;;4448161;28;20062;-64
2022/08/18 07:21:00;;;;;;;31.63;19.83;;;;;;;;;;4456063;28;20146;-63
2022/08/18 07:23:33;;;;;;;30.45;18.70;;;;;;;;;;4445368;28;20035;-63
2022/08/18 07:25:45;;;;;;;31.55;18.90;;;;;;;;;;4469035;28;20041;-63
2022/08/18 07:27:56;;;;;;;28.17;18.90;;;;;;;;;;4443101;28;20039;-63
2022/08/18 07:30:11;;;;;;;27.95;17.67;;;;;;;;;;4456478;28;20067;-64
2022/08/18 07:32:21;;;;;;;28.95;18.33;;;;;;;;;;4440885;28;20877;-63
2022/08/18 07:34:40;;;;;;;30.60;17.45;;;;;;;;;;4454177;28;20122;-63
2022/08/18 07:37:11;;;;;;;28.33;17.25;;;;;;;;;;4447557;28;20043;-63
2022/08/18 07:39:26;;;;;;;26.33;16.83;;;;;;;;;;4439360;28;20062;-63
2022/08/18 07:41:46;;;;;;;26.48;16.55;;;;;;;;;;4471219;28;20042;-63
2022/08/18 07:44:07;;;;;;;29.65;17.48;;;;;;;;;;4457356;28;20037;-63
2022/08/18 07:46:38;;;;;;;23.95;15.55;;;;;;;;;;4455474;28;20035;-63
2022/08/18 07:48:48;;;;;;;24.27;14.52;;;;;;;;;;4470159;28;21635;-63
2022/08/18 07:51:09;;;;;;;25.50;16.00;;;;;;;;;;4469966;28;20101;-63
2022/08/18 07:53:33;;;;;;;25.83;16.08;;;;;;;;;;4443175;28;20079;-63
2022/08/18 07:55:47;;;;;;;26.25;17.08;;;;;;;;;;4442751;28;20571;-64
2022/08/18 07:58:23;;;;;;;24.42;15.98;;;;;;;;;;4454561;28;20649;-63
2022/08/18 08:00:44;;;;;;;27.85;17.13;;;;;;;;;;4454892;28;20626;-63
2022/08/18 08:03:18;;;;;;;27.80;18.00;;;;;;;;;;4455883;28;20122;-63
2022/08/18 08:05:42;;;;;;;27.60;17.27;;;;;;;;;;4453606;28;20047;-63
2022/08/18 08:08:00;;;;;;;27.48;17.42;;;;;;;;;;4470616;28;20114;-63
2022/08/18 08:10:30;;;;;;;28.00;17.65;;;;;;;;;;4439556;28;20130;-63
2022/08/18 08:12:46;;;;;;;26.58;16.95;;;;;;;;;;4470259;28;20090;-63
2022/08/18 08:15:07;;;;;;;29.10;18.98;;;;;;;;;;4455224;28;20098;-63
2022/08/18 08:17:54;;;;;;;28.25;17.80;;;;;;;;;;4438041;28;20039;-63
2022/08/18 08:20:17;;;;;;;27.55;17.33;;;;;;;;;;4458742;28;20720;-63
2022/08/18 08:22:37;;;;;;;27.63;17.30;;;;;;;;;;4456153;28;20035;-63
2022/08/18 08:25:00;;;;;;;27.40;17.27;;;;;;;;;;4438445;28;20027;-63
2022/08/18 08:27:33;;;;;;;25.20;16.80;;;;;;;;;;4447459;28;20077;-63
2022/08/18 08:30:02;;;;;;;24.58;16.30;;;;;;;;;;4453789;28;20054;-63
2022/08/18 08:32:19;;;;;;;26.23;16.58;;;;;;;;;;4455633;28;20040;-63
2022/08/18 08:34:29;;;;;;;;;;;;;;;;;;4438893;28;20042;-63
2022/08/18 08:36:43;;;;;;;27.73;17.60;;;;;;;;;;4454291;28;19924;-64
2022/08/18 08:38:58;;;;;;;26.17;17.20;;;;;;;;;;4452035;28;20038;-63
2022/08/18 08:41:34;;;;;;;27.83;17.85;;;;;;;;;;4439580;28;20083;-63
2022/08/18 08:43:59;;;;;;;28.90;17.67;;;;;;;;;;4453975;28;20050;-63
2022/08/18 08:46:14;;;;;;;27.05;17.20;;;;;;;;;;4425242;28;20036;-63
2022/08/18 08:48:27;;;;;;;26.55;17.40;;;;;;;;;;4441852;28;20129;-63
2022/08/18 08:50:41;;;;;;;26.02;17.33;;;;;;;;;;4468381;28;20037;-63
2022/08/18 08:53:27;;;;;;;27.55;17.02;;;;;;;;;;4447492;28;20051;-63
2022/08/18 08:55:47;;;;;;;24.98;16.25;;;;;;;;;;4406436;29;20036;-63
2022/08/18 08:58:25;;;;;;;26.98;17.73;;;;;;;;;;4432497;28;20278;-63
2022/08/18 09:00:38;;;;;;;29.77;18.50;;;;;;;;;;4450114;28;20773;-63
2022/08/18 09:03:00;;;;;;;28.85;18.35;;;;;;;;;;4448403;28;20031;-63
2022/08/18 09:05:34;;;;;;;26.02;16.75;;;;;;;;;;4470046;28;20790;-63
2022/08/18 09:08:12;;;;;;;29.15;18.15;;;;;;;;;;4455863;28;20042;-63
2022/08/18 09:10:28;;;;;;;27.27;20.38;;;;;;;;;;4454201;28;20038;-63
2022/08/18 09:12:48;;;;;;;30.50;18.75;;;;;;;;;;4456053;28;20042;-63
2022/08/18 09:15:10;;;;;;;27.00;17.45;;;;;;;;;;4454974;28;20087;-63
2022/08/18 09:17:40;;;;;;;25.77;17.08;;;;;;;;;;4458523;28;20742;-63
2022/08/18 09:20:29;;;;;;;30.35;18.88;;;;;;;;;;4450175;28;20039;-68
2022/08/18 09:23:04;;;;;;;27.65;18.08;;;;;;;;;;4458918;28;20126;-68
2022/08/18 09:25:37;;;;;;;27.90;17.38;;;;;;;;;;4456302;28;20138;-67
2022/08/18 09:27:48;;;;;;;27.20;17.25;;;;;;;;;;4451332;28;20034;-68
2022/08/18 09:30:00;;;;;;;27.80;17.83;;;;;;;;;;4458098;28;20046;-68
2022/08/18 09:32:17;;;;;;;29.90;18.63;;;;;;;;;;4459293;28;20039;-68
2022/08/18 09:34:37;;;;;;;28.27;17.92;;;;;;;;;;4459451;28;20207;-68
2022/08/18 09:37:23;;;;;;;25.92;17.20;;;;;;;;;;4457985;28;20042;-68
2022/08/18 09:42:11;;;;;;;28.10;18.02;;;;;;;;;;4457873;28;20039;-67
2022/08/18 09:44:40;;;;;;;32.00;18.73;;;;;;;;;;4450642;28;20064;-68
2022/08/18 09:46:53;;;;;;;32.80;18.95;;;;;;;;;;4458895;28;20233;-67
2022/08/18 09:49:21;;;;;;;28.10;17.35;;;;;;;;;;4457901;28;20673;-68
2022/08/18 09:51:35;;;;;;;29.70;17.98;;;;;;;;;;4458760;28;20043;-68
2022/08/18 09:53:46;;;;;;;28.23;17.63;;;;;;;;;;4457817;28;20885;-67
2022/08/18 09:55:57;;;;;;;30.52;17.90;;;;;;;;;;4450887;28;20146;-68
2022/08/18 09:58:36;;;;;;;29.42;18.30;;;;;;;;;;4458347;28;20633;-67
2022/08/18 10:01:18;;;;;;;30.27;18.50;;;;;;;;;;4458595;28;20043;-67
2022/08/18 10:03:28;;;;;;;27.13;17.88;;;;;;;;;;4458280;28;20050;-67
2022/08/18 10:05:39;;;;;;;28.65;18.02;;;;;;;;;;4457363;28;20042;-67
2022/08/18 10:08:02;;;;;;;29.20;17.85;;;;;;;;;;4458912;28;20035;-67
2022/08/18 10:10:51;;;;;;;28.15;17.08;;;;;;;;;;4459687;28;20043;-67
2022/08/18 10:13:32;;;;;;;29.67;17.60;;;;;;;;;;4459117;28;20049;-67
2022/08/18 10:15:58;;;;;;;28.73;16.98;;;;;;;;;;4456667;28;20051;-67
2022/08/18 10:18:30;;;;;;;26.75;16.25;;;;;;;;;;4460190;28;20098;-67
2022/08/18 10:20:46;;;;;;;28.00;17.33;;;;;;;;;;4457299;28;20063;-67
2022/08/18 10:22:57;;;;;;;29.58;17.60;;;;;;;;;;4455958;28;20043;-68
2022/08/18 10:25:10;;;;;;;27.60;17.60;;;;;;;;;;4441784;28;20035;-67
2022/08/18 10:27:47;;;;;;;30.27;17.95;;;;;;;;;;4443043;28;20048;-67
2022/08/18 10:29:58;;;;;;;28.90;17.17;;;;;;;;;;4456151;28;20051;-68
2022/08/18 10:32:08;;;;;;;30.38;18.02;;;;;;;;;;4456492;28;20039;-67
2022/08/18 10:34:45;;;;;;;27.65;17.15;;;;;;;;;;4458074;28;20579;-67
2022/08/18 10:36:59;;;;;;;30.38;18.60;;;;;;;;;;4457288;28;20042;-68
2022/08/18 10:39:13;;;;;;;29.23;17.58;;;;;;;;;;4442615;28;20038;-68
2022/08/18 10:41:30;;;;;;;27.45;16.77;;;;;;;;;;4441994;28;20039;-68
2022/08/18 10:43:46;;;;;;;29.55;17.17;;;;;;;;;;4458055;28;20691;-69
2022/08/18 10:45:57;;;;;;;28.90;16.97;;;;;;;;;;4471887;28;20030;-67
2022/08/18 10:48:13;;;;;;;28.80;17.77;;;;;;;;;;4472927;28;20038;-67
2022/08/18 10:50:25;;;;;;;27.35;16.88;;;;;;;;;;4450640;28;20048;-68
2022/08/18 10:53:04;;;;;;;28.15;16.77;;;;;;;;;;4445796;28;20216;-67
2022/08/18 10:55:45;;;;;;;27.75;16.75;;;;;;;;;;4472472;28;20046;-68
2022/08/18 10:58:16;;;;;;;27.42;16.95;;;;;;;;;;4411869;28;20741;-67
2022/08/18 11:00:36;;;;;;;28.75;16.92;;;;;;;;;;4458965;28;20618;-67
2022/08/18 11:03:22;;;;;;;27.20;16.08;;;;;;;;;;4456491;28;20123;-67
2022/08/18 11:05:33;;;;;;;29.92;17.60;;;;;;;;;;4457329;28;20042;-67
2022/08/18 11:07:47;;;;;;;27.27;17.30;;;;;;;;;;4474295;28;20039;-66
2022/08/18 11:09:58;;;;;;;29.13;17.05;;;;;;;;;;4457425;28;20571;-68
2022/08/18 11:12:11;;;;;;;28.40;17.13;;;;;;;;;;4442074;28;20062;-67
2022/08/18 11:14:31;;;;;;;28.77;17.33;;;;;;;;;;4441671;28;20032;-67
2022/08/18 11:16:47;;;;;;;28.65;17.30;;;;;;;;;;4458790;28;20031;-68
2022/08/18 11:19:07;;;;;;;26.67;15.82;;;;;;;;;;4458852;28;20035;-67
2022/08/18 11:21:39;;;;;;;26.20;15.55;;;;;;;;;;4443153;28;20028;-67
2022/08/18 11:24:23;;;;;;;29.73;17.13;;;;;;;;;;4450605;28;20039;-67
2022/08/18 11:26:46;;;;;;;26.40;15.45;;;;;;;;;;4450443;28;20055;-67
2022/08/18 11:28:56;;;;;;;25.10;14.98;;;;;;;;;;4429313;28;20047;-67
2022/08/18 11:31:07;;;;;;;28.95;17.05;;;;;;;;;;4458239;28;20483;-66
2022/08/18 11:33:19;;;;;;;28.35;16.75;;;;;;;;;;4443442;28;20180;-66
2022/08/18 11:35:34;;;;;;;27.98;16.55;;;;;;;;;;4458642;28;20199;-67
2022/08/18 11:37:47;;;;;;;26.55;16.30;;;;;;;;;;4448851;28;21402;-66
2022/08/18 11:39:59;;;;;;;27.50;17.00;;;;;;;;;;4456828;28;20165;-67
2022/08/18 11:42:14;;;;;;;28.25;16.23;;;;;;;;;;4454891;28;21017;-66
2022/08/18 11:44:30;;;;;;;26.38;15.55;;;;;;;;;;4450116;28;20035;-66
2022/08/18 11:46:41;;;;;;;20.92;13.70;;;;;;;;;;4449391;28;20106;-66
2022/08/18 11:48:52;;;;;;;23.98;14.27;;;;;;;;;;4457065;28;20054;-67
2022/08/18 11:51:19;;;;;;;25.98;15.77;;;;;;;;;;4455559;28;20137;-67
2022/08/18 11:53:48;;;;;;;;;;;;;;;;;;4456188;28;20066;-66
2022/08/18 11:56:37;;;;;;;21.65;14.05;;;;;;;;;;4455820;28;19918;-67
2022/08/18 11:58:56;;;;;;;25.67;14.98;;;;;;;;;;4388933;29;20661;-66
2022/08/18 12:01:09;;;;;;;23.70;14.88;;;;;;;;;;4372527;29;20119;-66
2022/08/18 12:03:36;;;;;;;23.55;13.52;;;;;;;;;;4387132;29;20048;-66
2022/08/18 12:05:52;;;;;;;22.50;14.13;;;;;;;;;;4370914;29;20797;-66
2022/08/18 12:08:03;;;;;;;;;;;;;;;;;;4376106;29;20044;-66
2022/08/18 12:10:29;;;;;;;24.40;14.43;;;;;;;;;;4372859;29;19927;-66
2022/08/18 12:12:48;;;;;;;24.15;14.05;;;;;;;;;;4371942;29;20195;-66
2022/08/18 12:15:24;;;;;;;24.00;14.73;;;;;;;;;;4364790;29;20854;-66
2022/08/18 12:17:34;;;;;;;23.77;14.60;;;;;;;;;;4356779;29;20614;-66
2022/08/18 12:19:45;;;;;;;23.20;14.38;;;;;;;;;;4358931;29;20029;-67
2022/08/18 12:21:58;;;;;;;24.42;14.18;;;;;;;;;;4374714;29;20094;-67
2022/08/18 12:24:18;;;;;;;24.85;15.57;;;;;;;;;;4364694;29;20049;-66
2022/08/18 12:26:29;;;;;;;24.60;14.85;;;;;;;;;;4361467;29;20033;-67
2022/08/18 12:28:40;;;;;;;23.98;14.35;;;;;;;;;;4375418;28;20085;-67
2022/08/18 12:30:50;;;;;;;21.75;13.93;;;;;;;;;;4454269;28;20042;-67
2022/08/18 12:33:00;;;;;;;20.25;13.05;;;;;;;;;;4455888;28;20381;-66
2022/08/18 12:35:11;;;;;;;22.27;14.20;;;;;;;;;;4439131;28;20039;-66
2022/08/18 12:37:24;;;;;;;18.20;11.63;;;;;;;;;;4455241;28;20031;-66
2022/08/18 12:39:35;;;;;;;19.92;12.18;;;;;;;;;;4454942;28;20081;-66
2022/08/18 12:41:46;;;;;;;21.13;13.73;;;;;;;;;;4436374;28;20103;-65
2022/08/18 12:43:56;;;;;;;23.75;14.60;;;;;;;;;;4454317;28;20052;-70
2022/08/18 12:46:07;;;;;;;20.75;12.80;;;;;;;;;;4442455;28;20035;-66
2022/08/18 12:48:18;;;;;;;19.35;12.27;;;;;;;;;;4438742;28;20054;-66
2022/08/18 12:50:28;;;;;;;18.88;11.80;;;;;;;;;;4454616;28;20036;-67
2022/08/18 12:52:39;;;;;;;15.65;10.40;;;;;;;;;;4458363;28;20027;-67
2022/08/18 12:54:49;;;;;;;17.80;10.65;;;;;;;;;;4459469;28;20071;-67
2022/08/18 12:57:02;;;;;;;15.35;10.80;;;;;;;;;;4458304;28;20058;-66
2022/08/18 12:59:12;;;;;;;16.45;10.60;;;;;;;;;;4458385;28;20031;-65
2022/08/18 13:01:26;;;;;;;16.15;10.90;;;;;;;;;;4458198;28;20472;-66
2022/08/18 13:03:36;;;;;;;15.98;10.90;;;;;;;;;;4446542;28;20027;-65
2022/08/18 13:05:47;;;;;;;15.55;10.45;;;;;;;;;;4458382;28;20388;-65
2022/08/18 13:08:00;;;;;;;14.88;10.20;;;;;;;;;;4458240;28;20559;-66
2022/08/18 13:10:10;;;;;;;17.67;11.32;;;;;;;;;;4448492;28;20043;-65
2022/08/18 13:12:22;;;;;;;18.50;12.25;;;;;;;;;;4458891;28;20059;-69
2022/08/18 13:14:33;;;;;;;17.08;11.20;;;;;;;;;;4457350;28;20038;-66
2022/08/18 13:16:44;;;;;;;16.08;10.95;;;;;;;;;;4459319;28;20039;-67
2022/08/18 13:18:55;;;;;;;17.73;11.32;;;;;;;;;;4457842;28;20098;-66
2022/08/18 13:21:08;;;;;;;15.57;10.48;;;;;;;;;;4458001;28;20549;-66
2022/08/18 13:23:19;;;;;;;15.85;10.50;;;;;;;;;;4450521;28;20144;-66
2022/08/18 13:25:29;;;;;;;16.08;10.77;;;;;;;;;;4442919;28;20039;-66
2022/08/18 13:27:40;;;;;;;16.27;10.32;;;;;;;;;;4457307;28;20784;-67
2022/08/18 13:29:51;;;;;;;14.07;9.80;;;;;;;;;;4458240;28;20046;-66